Time;durP1;ratioP1;P1;durP2;ratioP2;P2;SDS_P1;SDS_P2;PMS_P1;PMS_P2;Temp;Humidity;BMP_temperature;BMP_pressure;BME280_temperature;BME280_humidity;BME280_pressure;Samples;Min_cycle;Max_cycle;Signal;HPM_P1;HPM_P2
2023/04/17 00:02:21;;;;;;;;;7.75;6.75;;;;;13.50;43.25;101995.16;5029792;28;56013;-58
2023/04/17 00:04:47;;;;;;;;;5.50;5.50;;;;;13.48;43.62;101991.63;5030422;28;45347;-58
2023/04/17 00:07:12;;;;;;;;;6.75;6.25;;;;;13.46;43.37;101996.06;5019168;28;45479;-57
2023/04/17 00:09:37;;;;;;;;;10.00;6.00;;;;;13.43;43.36;101996.06;5019101;28;45224;-58
2023/04/17 00:12:03;;;;;;;;;7.50;6.00;;;;;13.39;43.54;102003.13;5019330;28;45260;-58
2023/04/17 00:14:28;;;;;;;;;7.75;7.75;;;;;13.38;43.65;101995.22;5019305;28;45282;-58
2023/04/17 00:16:54;;;;;;;;;6.50;6.00;;;;;13.34;43.66;101994.31;5019258;28;45315;-57
2023/04/17 00:19:19;;;;;;;;;6.50;6.25;;;;;13.31;43.48;101987.28;5018978;28;45996;-57
2023/04/17 00:21:45;;;;;;;;;9.00;7.75;;;;;13.30;43.39;101985.53;5018946;28;45373;-58
2023/04/17 00:24:11;;;;;;;;;10.00;8.25;;;;;13.29;43.82;101991.69;5017756;28;45451;-57
2023/04/17 00:26:37;;;;;;;;;6.50;6.50;;;;;13.27;43.56;101985.56;5028382;28;45424;-58
2023/04/17 00:29:02;;;;;;;;;10.00;7.00;;;;;13.24;43.62;101985.56;5041839;28;45323;-58
2023/04/17 00:31:28;;;;;;;;;9.25;8.50;;;;;13.21;43.75;101985.59;5041598;28;45415;-58
2023/04/17 00:33:53;;;;;;;;;8.00;7.00;;;;;13.21;43.56;101982.97;5029987;28;45600;-58
2023/04/17 00:36:18;;;;;;;;;9.50;7.00;;;;;13.20;43.92;101986.47;5035208;28;45213;-58
2023/04/17 00:38:44;;;;;;;;;6.50;6.50;;;;;13.16;43.70;101977.69;5032290;28;45461;-58
2023/04/17 00:41:10;;;;;;;;;5.50;5.50;;;;;13.16;43.84;101979.47;5042279;28;45259;-58
2023/04/17 00:43:35;;;;;;;;;10.75;7.00;;;;;13.14;43.77;101973.31;5027146;28;45523;-58
2023/04/17 00:46:02;;;;;;;;;7.75;6.50;;;;;13.11;43.67;101968.06;5024871;28;45363;-58
2023/04/17 00:48:27;;;;;;;;;5.00;4.00;;;;;13.10;43.75;101971.59;5022195;28;45277;-57
2023/04/17 00:50:54;;;;;;;;;8.00;7.75;;;;;13.10;43.97;101974.22;5022144;28;45631;-57
2023/04/17 00:53:19;;;;;;;;;8.75;6.75;;;;;13.06;44.00;101972.50;5032615;28;45319;-57
2023/04/17 00:55:47;;;;;;;;;9.25;7.50;;;;;13.05;43.89;101970.72;5041989;28;45331;-57
2023/04/17 00:58:13;;;;;;;;;6.25;6.25;;;;;12.98;43.94;101965.47;5027482;28;46233;-57
2023/04/17 01:00:39;;;;;;;;;9.50;9.50;;;;;12.99;43.91;101955.78;5031008;28;45325;-57
2023/04/17 01:03:04;;;;;;;;;7.00;7.00;;;;;12.95;43.86;101947.00;5042892;28;45232;-57
2023/04/17 01:05:30;;;;;;;;;6.75;6.25;;;;;12.94;44.03;101953.19;5021711;28;45336;-57
2023/04/17 01:07:56;;;;;;;;;5.50;5.50;;;;;12.93;44.07;101951.44;5021803;28;46139;-57
2023/04/17 01:10:22;;;;;;;;;6.25;6.25;;;;;12.91;44.13;101953.19;5021748;28;45174;-57
2023/04/17 01:13:03;;;;;;;;;8.50;5.50;;;;;12.89;44.02;101944.41;5036247;28;45288;-57
2023/04/17 01:15:29;;;;;;;;;7.25;6.00;;;;;12.87;44.28;101940.00;5031831;28;45255;-57
2023/04/17 01:17:54;;;;;;;;;10.75;8.50;;;;;12.86;43.84;101939.16;5021485;28;46526;-57
2023/04/17 01:20:20;;;;;;;;;8.00;7.75;;;;;12.85;44.15;101945.31;5020525;28;45334;-57
2023/04/17 01:22:48;;;;;;;;;8.00;8.00;;;;;12.85;44.22;101950.59;5021614;28;45706;-57
2023/04/17 01:25:13;;;;;;;;;6.25;6.25;;;;;12.82;44.14;101947.97;5021667;28;45442;-57
2023/04/17 01:27:38;;;;;;;;;9.50;7.25;;;;;12.81;44.23;101951.50;5036860;28;46089;-57
2023/04/17 01:30:04;;;;;;;;;6.25;6.00;;;;;12.78;44.34;101955.00;5040831;28;52042;-57
2023/04/17 01:32:29;;;;;;;;;8.75;7.50;;;;;12.77;44.38;101955.03;5041222;28;45300;-57
2023/04/17 01:34:55;;;;;;;;;6.75;6.75;;;;;12.75;44.51;101956.78;5041264;28;45636;-57
2023/04/17 01:37:20;;;;;;;;;9.00;9.00;;;;;12.74;44.11;101960.31;5024893;28;45290;-57
2023/04/17 01:39:46;;;;;;;;;7.25;7.25;;;;;12.71;44.13;101963.84;5021167;28;45326;-58
2023/04/17 01:42:11;;;;;;;;;6.50;5.75;;;;;12.71;44.24;101965.59;5021505;28;45390;-57
2023/04/17 01:44:37;;;;;;;;;11.75;8.50;;;;;12.67;44.44;101959.47;5021201;28;55777;-56
2023/04/17 01:47:02;;;;;;;;;10.00;8.25;;;;;12.65;44.57;101962.09;5021160;28;45368;-56
2023/04/17 01:49:27;;;;;;;;;9.00;6.50;;;;;12.63;44.63;101952.44;5021412;28;45390;-58
2023/04/17 01:51:53;;;;;;;;;11.75;8.25;;;;;12.61;44.68;101949.78;5037333;28;45564;-56
2023/04/17 01:54:19;;;;;;;;;9.75;7.50;;;;;12.57;44.59;101944.56;5031450;28;45178;-56
2023/04/17 01:56:45;;;;;;;;;12.75;10.00;;;;;12.59;44.48;101953.31;5032950;28;47021;-56
2023/04/17 01:59:11;;;;;;;;;10.25;8.25;;;;;12.56;44.66;101950.69;5036390;28;45296;-56
2023/04/17 02:01:36;;;;;;;;;5.75;5.50;;;;;12.52;44.97;101945.41;5034939;28;45293;-56
2023/04/17 02:04:01;;;;;;;;;9.00;9.00;;;;;12.52;44.71;101953.34;5021128;28;45325;-56
2023/04/17 02:06:26;;;;;;;;;9.75;9.25;;;;;12.50;44.85;101955.13;5020505;28;45289;-56
2023/04/17 02:08:52;;;;;;;;;9.00;8.50;;;;;12.48;44.75;101954.22;5030814;28;45213;-56
2023/04/17 02:11:17;;;;;;;;;9.75;9.75;;;;;12.46;44.95;101949.84;5040860;28;45272;-56
2023/04/17 02:13:43;;;;;;;;;8.00;6.00;;;;;12.45;45.07;101951.63;5040580;28;45335;-55
2023/04/17 02:16:08;;;;;;;;;10.75;9.00;;;;;12.44;44.77;101946.31;5024064;28;45253;-59
2023/04/17 02:18:34;;;;;;;;;8.25;8.00;;;;;12.41;44.91;101949.84;5020943;28;45495;-56
2023/04/17 02:20:59;;;;;;;;;7.25;6.50;;;;;12.40;44.93;101949.84;5020553;28;45670;-57
2023/04/17 02:23:24;;;;;;;;;4.75;4.00;;;;;12.37;44.88;101949.88;5036318;28;45590;-57
2023/04/17 02:25:50;;;;;;;;;10.00;8.75;;;;;12.34;45.00;101940.22;5045270;28;46886;-57
2023/04/17 02:28:15;;;;;;;;;9.75;9.00;;;;;12.31;44.87;101941.13;5040512;28;45401;-56
2023/04/17 02:30:41;;;;;;;;;8.00;8.00;;;;;12.29;45.04;101940.22;5040202;28;45346;-56
2023/04/17 02:33:06;;;;;;;;;7.25;6.25;;;;;12.28;44.92;101940.25;5040628;28;45480;-56
2023/04/17 02:35:33;;;;;;;;;8.75;8.75;;;;;12.25;45.14;101938.50;5039797;28;45885;-57
2023/04/17 02:37:58;;;;;;;;;11.75;11.00;;;;;12.21;45.03;101933.22;5040500;28;45242;-57
2023/04/17 02:40:23;;;;;;;;;6.75;6.75;;;;;12.22;45.22;101940.25;5039191;28;54163;-56
2023/04/17 02:42:49;;;;;;;;;14.00;8.00;;;;;12.19;45.19;101944.63;5040464;28;46050;-57
2023/04/17 02:45:14;;;;;;;;;9.50;8.75;;;;;12.17;45.09;101943.75;5040098;28;45424;-56
2023/04/17 02:47:40;;;;;;;;;11.50;9.00;;;;;12.15;45.19;101937.63;5039915;28;45382;-57
2023/04/17 02:50:06;;;;;;;;;10.00;9.75;;;;;12.15;45.32;101942.00;5039823;28;45860;-56
2023/04/17 02:52:32;;;;;;;;;8.25;7.50;;;;;12.11;45.20;101932.34;5040212;28;45236;-56
2023/04/17 02:54:57;;;;;;;;;8.75;8.75;;;;;12.11;45.20;101935.88;5039967;28;46051;-57
2023/04/17 02:57:24;;;;;;;;;8.00;7.25;;;;;12.10;45.22;101941.13;5040326;28;45231;-57
2023/04/17 02:59:50;;;;;;;;;12.00;9.50;;;;;12.05;45.41;101937.63;5038500;28;45331;-57
2023/04/17 03:02:20;;;;;;;;;9.00;9.00;;;;;12.06;45.46;101942.03;5028717;28;46060;-57
2023/04/17 03:04:50;;;;;;;;;9.00;9.00;;;;;12.02;45.44;101938.50;5039993;28;46316;-56
2023/04/17 03:07:19;;;;;;;;;9.50;9.50;;;;;12.01;45.43;101937.66;5030415;28;45322;-57
2023/04/17 03:09:46;;;;;;;;;10.25;9.00;;;;;12.00;45.44;101935.00;5035289;28;45177;-56
2023/04/17 03:12:13;;;;;;;;;11.25;9.75;;;;;11.97;45.53;101932.38;5020026;28;45265;-57
2023/04/17 03:14:38;;;;;;;;;12.75;9.50;;;;;11.96;45.61;101939.41;5035152;28;47158;-57
2023/04/17 03:17:03;;;;;;;;;9.50;7.75;;;;;11.95;45.43;101934.09;5019911;28;45356;-57
2023/04/17 03:19:29;;;;;;;;;10.25;9.25;;;;;11.90;45.54;101930.56;5033488;28;45304;-57
2023/04/17 03:21:54;;;;;;;;;8.50;8.50;;;;;11.92;45.57;101939.38;5029878;28;45589;-56
2023/04/17 03:24:19;;;;;;;;;7.00;7.00;;;;;11.87;45.63;101932.34;5024485;28;59073;-56
2023/04/17 03:26:45;;;;;;;;;10.50;10.50;;;;;11.87;45.73;101942.88;5038326;28;45371;-57
2023/04/17 03:29:10;;;;;;;;;9.25;9.25;;;;;11.87;45.63;101939.34;5039315;28;45303;-57
2023/04/17 03:31:35;;;;;;;;;10.00;10.00;;;;;11.85;45.65;101942.00;5039936;28;45471;-57
2023/04/17 03:34:01;;;;;;;;;7.50;6.75;;;;;11.83;45.59;101941.13;5039148;28;45948;-58
2023/04/17 03:36:26;;;;;;;;;9.50;8.25;;;;;11.83;45.77;101937.63;5031119;28;46903;-56
2023/04/17 03:38:52;;;;;;;;;10.50;9.25;;;;;11.81;45.71;101944.63;5019667;28;45270;-56
2023/04/17 03:41:17;;;;;;;;;11.75;10.75;;;;;11.80;45.73;101941.13;5019861;28;51492;-56
2023/04/17 03:43:42;;;;;;;;;12.50;10.75;;;;;11.79;45.78;101942.00;5019490;28;45344;-56
2023/04/17 03:46:07;;;;;;;;;12.00;10.00;;;;;11.78;45.70;101944.66;5019458;28;50672;-56
2023/04/17 03:48:33;;;;;;;;;12.00;11.75;;;;;11.77;45.92;101940.25;5019422;28;45222;-56
2023/04/17 03:50:58;;;;;;;;;55.25;44.00;;;;;11.76;45.89;101944.66;5019635;28;45492;-57
2023/04/17 03:53:23;;;;;;;;;12.00;11.00;;;;;11.75;45.95;101945.53;5019501;28;45230;-57
2023/04/17 03:55:49;;;;;;;;;11.25;10.25;;;;;11.70;45.92;101942.88;5019640;28;45224;-56
2023/04/17 03:58:14;;;;;;;;;14.50;12.00;;;;;11.71;46.02;101952.53;5019586;28;45230;-57
2023/04/17 04:00:40;;;;;;;;;11.75;10.50;;;;;11.70;46.02;101947.28;5031325;28;45458;-56
2023/04/17 04:03:06;;;;;;;;;10.75;10.00;;;;;11.69;46.00;101951.66;5027912;28;45298;-57
2023/04/17 04:05:31;;;;;;;;;16.75;15.75;;;;;11.67;45.97;101950.78;5022883;28;45229;-57
2023/04/17 04:07:56;;;;;;;;;11.00;10.50;;;;;11.65;46.13;101943.78;5022751;28;45968;-57
2023/04/17 04:10:21;;;;;;;;;12.25;11.00;;;;;11.61;46.18;101948.16;5026535;28;45229;-57
2023/04/17 04:12:47;;;;;;;;;15.25;13.50;;;;;11.63;46.13;101953.41;5022802;28;45384;-55
2023/04/17 04:15:12;;;;;;;;;11.75;11.00;;;;;11.60;46.33;101956.91;5022950;28;45182;-57
2023/04/17 04:17:38;;;;;;;;;14.00;13.25;;;;;11.58;46.26;101950.75;5022943;28;45159;-57
2023/04/17 04:20:07;;;;;;;;;14.25;11.50;;;;;11.57;46.29;101954.28;5022858;28;45511;-56
2023/04/17 04:22:33;;;;;;;;;14.75;13.00;;;;;11.54;46.20;101949.88;5022550;28;46298;-57
2023/04/17 04:24:59;;;;;;;;;11.00;11.00;;;;;11.52;46.44;101949.03;5022416;28;45269;-57
2023/04/17 04:27:26;;;;;;;;;10.50;9.25;;;;;11.54;46.44;101956.91;5036318;28;45219;-57
2023/04/17 04:29:51;;;;;;;;;13.50;12.75;;;;;11.54;46.54;101956.91;5042480;28;45256;-57
2023/04/17 04:32:17;;;;;;;;;13.50;11.50;;;;;11.52;46.70;101953.38;5032627;28;45138;-57
2023/04/17 04:34:43;;;;;;;;;12.75;10.75;;;;;11.51;46.49;101956.94;5042469;28;45242;-57
2023/04/17 04:37:09;;;;;;;;;15.25;12.50;;;;;11.51;46.61;101963.06;5043527;28;45498;-57
2023/04/17 04:39:36;;;;;;;;;14.50;13.00;;;;;11.50;46.42;101958.66;5022264;28;45407;-57
2023/04/17 04:42:04;;;;;;;;;15.75;13.25;;;;;11.50;46.46;101965.69;5022046;28;46041;-57
2023/04/17 04:44:31;;;;;;;;;10.25;8.25;;;;;11.49;46.60;101964.78;5022409;28;45328;-57
2023/04/17 04:46:56;;;;;;;;;20.25;16.00;;;;;11.50;46.79;101965.69;5022226;28;45325;-57
2023/04/17 04:49:21;;;;;;;;;20.25;17.25;;;;;11.49;46.69;101956.03;5022232;28;45438;-57
2023/04/17 04:51:47;;;;;;;;;19.50;17.75;;;;;11.50;46.67;101961.28;5021967;28;46201;-57
2023/04/17 04:54:12;;;;;;;;;18.25;17.50;;;;;11.50;46.83;101960.44;5022167;28;45266;-58
2023/04/17 04:56:38;;;;;;;;;33.50;30.50;;;;;11.49;46.64;101964.78;5022289;28;45308;-57
2023/04/17 04:59:04;;;;;;;;;17.50;16.25;;;;;11.49;46.59;101963.94;5022203;28;45498;-58
2023/04/17 05:01:29;;;;;;;;;20.75;16.00;;;;;11.50;46.83;101970.97;5035983;28;45743;-58
2023/04/17 05:03:55;;;;;;;;;17.25;16.50;;;;;11.52;46.92;101971.81;5022170;28;45249;-58
2023/04/17 05:06:20;;;;;;;;;20.00;19.50;;;;;11.48;46.94;101965.69;5021748;28;45305;-58
2023/04/17 05:08:45;;;;;;;;;24.25;18.75;;;;;11.51;47.03;101965.69;5020704;28;45506;-57
2023/04/17 05:11:11;;;;;;;;;26.00;19.00;;;;;11.51;47.00;101967.44;5020701;28;53101;-58
2023/04/17 05:13:36;;;;;;;;;21.75;19.25;;;;;11.52;47.09;101970.06;5022026;28;45326;-57
2023/04/17 05:16:02;;;;;;;;;21.00;18.00;;;;;11.51;47.14;101970.94;5021920;28;45380;-57
2023/04/17 05:18:27;;;;;;;;;22.25;21.25;;;;;11.52;47.36;101962.19;5030130;28;45496;-56
2023/04/17 05:20:52;;;;;;;;;24.50;21.00;;;;;11.53;47.16;101963.03;5039212;28;50044;-56
2023/04/17 05:23:20;;;;;;;;;23.25;22.25;;;;;11.52;47.28;101967.44;5021684;28;45273;-57
2023/04/17 05:25:45;;;;;;;;;21.50;18.00;;;;;11.53;47.35;101960.41;5021671;28;46657;-56
2023/04/17 05:28:11;;;;;;;;;25.00;22.75;;;;;11.54;47.32;101960.41;5041683;28;45327;-56
2023/04/17 05:30:36;;;;;;;;;24.75;21.25;;;;;11.54;47.29;101963.03;5039941;28;46421;-55
2023/04/17 05:33:01;;;;;;;;;27.25;25.75;;;;;11.55;47.19;101966.56;5041499;28;45284;-55
2023/04/17 05:35:27;;;;;;;;;32.50;25.75;;;;;11.56;47.42;101965.69;5041060;28;45182;-55
2023/04/17 05:37:53;;;;;;;;;25.75;20.00;;;;;11.55;47.40;101969.19;5028360;28;45509;-56
2023/04/17 05:40:18;;;;;;;;;29.25;24.25;;;;;11.58;47.54;101971.81;5027410;28;46192;-56
2023/04/17 05:42:44;;;;;;;;;23.50;21.00;;;;;11.57;47.66;101964.78;5021848;28;45273;-55
2023/04/17 05:45:14;;;;;;;;;20.25;20.25;;;;;11.61;47.56;101968.31;5020125;28;45281;-54
2023/04/17 05:47:39;;;;;;;;;30.25;28.00;;;;;11.60;47.55;101972.72;5036678;28;45336;-57
2023/04/17 05:50:06;;;;;;;;;31.75;29.75;;;;;11.62;47.61;101968.34;5021144;28;45530;-58
2023/04/17 05:52:31;;;;;;;;;57.50;43.50;;;;;11.63;47.48;101964.81;5020894;28;45331;-57
2023/04/17 05:54:57;;;;;;;;;43.50;34.25;;;;;11.65;47.55;101965.69;5021188;28;45270;-57
2023/04/17 05:57:22;;;;;;;;;44.00;35.00;;;;;11.66;47.81;101967.47;5021203;28;45347;-58
2023/04/17 05:59:48;;;;;;;;;37.00;32.50;;;;;11.68;47.81;101973.63;5021892;28;46678;-58
2023/04/17 06:02:14;;;;;;;;;31.50;28.25;;;;;11.67;47.81;101965.69;5032417;28;45258;-59
2023/04/17 06:04:40;;;;;;;;;30.75;28.50;;;;;11.70;48.00;101976.25;5034254;28;45664;-57
2023/04/17 06:07:06;;;;;;;;;38.25;31.75;;;;;11.70;48.02;101974.47;5024873;28;45496;-58
2023/04/17 06:09:32;;;;;;;;;29.25;29.25;;;;;11.70;48.05;101965.72;5035886;28;45541;-58
2023/04/17 06:11:58;;;;;;;;;33.00;29.75;;;;;11.75;47.97;101978.84;5032652;28;45372;-58
2023/04/17 06:14:23;;;;;;;;;34.00;28.75;;;;;11.77;48.09;101979.75;5020764;28;45257;-58
2023/04/17 06:16:48;;;;;;;;;39.25;31.75;;;;;11.79;48.13;101983.28;5021150;28;45482;-57
2023/04/17 06:19:14;;;;;;;;;36.50;31.00;;;;;11.79;48.22;101978.00;5019170;28;46152;-58
2023/04/17 06:21:40;;;;;;;;;37.75;31.00;;;;;11.80;48.30;101974.50;5020548;28;45340;-58
2023/04/17 06:24:05;;;;;;;;;33.75;27.75;;;;;11.82;48.24;101978.00;5018872;28;52338;-57
2023/04/17 06:26:31;;;;;;;;;35.75;29.00;;;;;11.85;48.19;101988.53;5027001;28;45159;-58
2023/04/17 06:28:56;;;;;;;;;30.00;27.00;;;;;11.82;48.30;101970.09;5040452;28;48150;-58
2023/04/17 06:31:21;;;;;;;;;35.50;31.00;;;;;11.87;48.35;101976.22;5032674;28;56332;-58
2023/04/17 06:33:48;;;;;;;;;33.75;30.75;;;;;11.89;48.27;101982.41;5036853;28;45290;-58
2023/04/17 06:36:14;;;;;;;;;28.75;27.50;;;;;11.90;48.31;101986.78;5033715;28;45451;-58
2023/04/17 06:38:40;;;;;;;;;31.00;28.00;;;;;11.93;48.39;101985.91;5021029;28;45413;-58
2023/04/17 06:41:05;;;;;;;;;33.00;28.25;;;;;11.94;48.37;101979.78;5020336;28;45735;-58
2023/04/17 06:43:30;;;;;;;;;33.00;27.50;;;;;11.96;48.36;101981.56;5020669;28;45496;-57
2023/04/17 06:45:56;;;;;;;;;36.50;33.25;;;;;11.97;48.49;101980.66;5020418;28;45315;-57
2023/04/17 06:48:21;;;;;;;;;33.00;31.00;;;;;11.99;48.59;101986.81;5020322;28;46099;-58
2023/04/17 06:50:47;;;;;;;;;31.50;30.50;;;;;12.00;48.60;101978.03;5024853;28;45429;-57
2023/04/17 06:53:12;;;;;;;;;33.25;31.75;;;;;12.01;48.52;101979.78;5028287;28;45426;-57
2023/04/17 06:55:37;;;;;;;;;37.00;32.50;;;;;12.02;48.66;101984.19;5027569;28;45462;-57
2023/04/17 06:58:03;;;;;;;;;35.75;31.00;;;;;12.04;48.74;101986.81;5027239;28;48200;-59
2023/04/17 07:00:29;;;;;;;;;35.75;30.25;;;;;12.07;48.70;101988.56;5029733;28;45483;-58
2023/04/17 07:02:54;;;;;;;;;33.00;31.00;;;;;11.99;48.65;101984.19;5023259;28;45412;-58
2023/04/17 07:05:20;;;;;;;;;41.75;33.50;;;;;12.08;48.76;101996.47;5019946;28;45324;-57
2023/04/17 07:07:45;;;;;;;;;34.50;31.75;;;;;12.05;48.79;101995.59;5018894;28;45332;-58
2023/04/17 07:10:11;;;;;;;;;39.25;34.00;;;;;12.11;48.83;102006.13;5019855;28;45221;-57
2023/04/17 07:12:36;;;;;;;;;38.00;33.75;;;;;12.10;48.87;101999.09;5020206;28;45323;-58
2023/04/17 07:15:02;;;;;;;;;33.50;31.00;;;;;12.13;48.99;102009.66;5020047;28;45249;-58
2023/04/17 07:17:27;;;;;;;;;34.00;32.50;;;;;12.11;48.96;102012.28;5019889;28;47344;-58
2023/04/17 07:19:52;;;;;;;;;38.00;30.25;;;;;12.14;48.81;102014.06;5019837;28;45150;-57
2023/04/17 07:22:18;;;;;;;;;38.50;33.00;;;;;12.15;49.01;102016.69;5019950;28;45621;-58
2023/04/17 07:24:43;;;;;;;;;39.25;34.25;;;;;12.16;49.02;102020.19;5031908;28;56307;-58
2023/04/17 07:27:08;;;;;;;;;39.75;34.25;;;;;12.16;49.02;102022.81;5029163;28;45959;-58
2023/04/17 07:29:34;;;;;;;;;37.75;31.25;;;;;12.17;48.96;102022.81;5029531;28;45662;-58
2023/04/17 07:32:01;;;;;;;;;28.00;25.50;;;;;12.20;49.10;102027.22;5028780;28;45704;-58
2023/04/17 07:34:29;;;;;;;;;39.75;33.50;;;;;12.20;48.86;102027.22;5031321;28;45379;-58
2023/04/17 07:36:55;;;;;;;;;34.25;30.25;;;;;12.23;49.04;102029.84;5033830;28;46326;-57
2023/04/17 07:39:21;;;;;;;;;38.25;32.25;;;;;12.24;49.13;102023.69;5035269;28;45356;-59
2023/04/17 07:41:47;;;;;;;;;16.25;10.50;;;;;12.24;49.08;102025.44;5038132;28;47158;-59
2023/04/17 07:44:12;;;;;;;;;43.75;36.25;;;;;12.26;49.43;102032.47;5034497;28;45282;-59
2023/04/17 07:46:37;;;;;;;;;41.75;35.25;;;;;12.27;49.22;102034.22;5048132;28;46356;-58
2023/04/17 07:49:03;;;;;;;;;45.50;35.50;;;;;12.29;49.24;102029.84;5035288;28;45285;-58
2023/04/17 07:51:29;;;;;;;;;35.00;33.00;;;;;12.30;49.21;102026.34;5042531;28;54757;-59
2023/04/17 07:53:55;;;;;;;;;38.00;31.25;;;;;12.31;49.15;102030.72;5045803;28;45321;-59
2023/04/17 07:56:20;;;;;;;;;41.50;34.75;;;;;12.33;49.26;102025.44;5043502;28;45951;-59
2023/04/17 07:58:45;;;;;;;;;42.00;36.25;;;;;12.33;49.32;102022.81;5044517;28;54547;-59
2023/04/17 08:01:12;;;;;;;;;42.25;33.00;;;;;12.33;49.27;102021.03;5041452;28;45509;-59
2023/04/17 08:03:40;;;;;;;;;41.50;33.75;;;;;12.40;49.33;102031.59;5045219;28;45273;-59
2023/04/17 08:06:05;;;;;;;;;40.00;35.00;;;;;12.37;49.61;102018.41;5045570;28;46058;-59
2023/04/17 08:08:30;;;;;;;;;43.00;34.00;;;;;12.43;49.19;102028.97;5045863;28;45286;-59
2023/04/17 08:10:56;;;;;;;;;39.00;34.00;;;;;12.45;49.50;102038.63;5045724;28;45542;-59
2023/04/17 08:13:21;;;;;;;;;47.25;34.50;;;;;12.48;49.54;102035.97;5045304;28;48513;-59
2023/04/17 08:15:46;;;;;;;;;45.00;34.25;;;;;12.48;49.58;102033.31;5060798;28;51558;-59
2023/04/17 08:18:12;;;;;;;;;42.75;35.25;;;;;12.52;49.66;102036.84;5045905;28;45307;-59
2023/04/17 08:20:38;;;;;;;;;44.00;36.25;;;;;12.50;49.92;102030.69;5045666;28;45264;-59
2023/04/17 08:23:04;;;;;;;;;46.25;33.75;;;;;12.56;49.57;102035.09;5044428;28;45439;-59
2023/04/17 08:25:30;;;;;;;;;48.50;39.50;;;;;12.59;49.59;102040.34;5031982;28;47004;-59
2023/04/17 08:27:55;;;;;;;;;45.75;35.00;;;;;12.61;49.78;102034.19;5045474;28;45414;-59
2023/04/17 08:30:20;;;;;;;;;47.50;36.50;;;;;12.60;49.69;102031.56;5045657;28;45248;-59
2023/04/17 08:32:48;;;;;;;;;42.00;36.75;;;;;12.66;49.50;102036.81;5045549;28;45466;-60
2023/04/17 08:35:15;;;;;;;;;47.50;40.00;;;;;12.68;49.77;102041.19;5045142;28;45899;-60
2023/04/17 08:37:43;;;;;;;;;45.25;36.75;;;;;12.70;49.66;102037.69;5026760;28;45255;-59
2023/04/17 08:40:09;;;;;;;;;49.00;40.50;;;;;12.73;49.60;102037.66;5025459;28;45218;-59
2023/04/17 08:42:36;;;;;;;;;47.50;36.25;;;;;12.67;49.71;102031.53;5025598;28;45543;-59
2023/04/17 08:45:10;;;;;;;;;47.25;38.25;;;;;12.76;49.64;102035.91;5025668;28;45380;-59
2023/04/17 08:47:38;;;;;;;;;52.50;39.50;;;;;12.77;49.89;102032.38;5028914;28;45495;-59
2023/04/17 08:50:11;;;;;;;;;50.00;39.00;;;;;12.80;49.86;102029.75;5027812;28;45322;-59
2023/04/17 08:52:41;;;;;;;;;45.25;36.75;;;;;12.82;49.84;102027.09;5022305;28;45393;-60
2023/04/17 08:55:08;;;;;;;;;49.00;39.50;;;;;12.84;50.03;102017.41;5021931;28;46887;-60
2023/04/17 08:57:33;;;;;;;;;46.25;38.50;;;;;12.87;49.43;102029.72;5037648;28;45273;-59
2023/04/17 09:00:03;;;;;;;;;44.00;36.00;;;;;12.91;50.17;102029.69;5025684;28;45271;-59
2023/04/17 09:02:29;;;;;;;;;48.25;40.25;;;;;12.91;49.72;102021.78;5032019;28;45339;-59
2023/04/17 09:04:54;;;;;;;;;51.25;41.25;;;;;12.91;49.69;102011.25;5021947;28;45468;-66
2023/04/17 09:07:31;;;;;;;;;48.00;37.50;;;;;12.99;50.01;102020.00;5021704;28;45283;-60
2023/04/17 09:09:56;;;;;;;;;46.75;36.50;;;;;13.04;50.11;102021.75;5021892;28;45527;-59
2023/04/17 09:12:23;;;;;;;;;45.00;38.00;;;;;13.05;49.97;102020.88;5022012;28;45507;-59
2023/04/17 09:14:49;;;;;;;;;55.25;40.50;;;;;13.10;49.75;102025.22;5040912;28;45641;-59
2023/04/17 09:17:16;;;;;;;;;50.75;41.00;;;;;13.15;49.79;102026.09;5028593;28;45332;-60
2023/04/17 09:20:16;;;;;;;;;50.00;39.75;;;;;13.20;49.83;102022.56;5021787;28;45349;-60
2023/04/17 09:22:42;;;;;;;;;45.50;37.50;;;;;13.23;50.11;102023.44;5032862;28;45526;-59
2023/04/17 09:25:18;;;;;;;;;46.50;37.00;;;;;13.27;50.14;102019.00;5031987;28;46879;-59
2023/04/17 09:27:44;;;;;;;;;47.50;34.25;;;;;13.31;50.22;102018.13;5038779;28;45499;-60
2023/04/17 09:30:12;;;;;;;;;44.75;38.00;;;;;13.34;49.81;102018.09;5041502;28;45364;-59
2023/04/17 09:32:39;;;;;;;;;44.75;37.25;;;;;13.37;49.89;102022.47;5037444;28;45616;-59
2023/04/17 09:35:05;;;;;;;;;50.50;39.00;;;;;13.42;50.17;102023.34;5048668;28;45992;-60
2023/04/17 09:38:03;;;;;;;;;49.25;39.75;;;;;13.46;50.26;102020.69;5024013;28;45307;-59
2023/04/17 09:40:39;;;;;;;;;48.00;37.00;;;;;13.49;50.08;102012.72;5027826;28;45316;-59
2023/04/17 09:43:07;;;;;;;;;44.00;35.25;;;;;13.54;50.08;102014.50;5031250;28;45307;-60
2023/04/17 09:45:40;;;;;;;;;49.25;37.75;;;;;13.58;50.12;102016.22;5019820;28;46185;-59
2023/04/17 09:48:11;;;;;;;;;48.50;37.00;;;;;13.60;49.82;102012.69;5021383;28;45356;-60
2023/04/17 09:50:36;;;;;;;;;46.50;35.25;;;;;13.62;50.10;102016.19;5021158;28;45229;-59
2023/04/17 09:53:03;;;;;;;;;39.25;33.00;;;;;13.60;50.25;102001.25;5021224;28;45308;-59
2023/04/17 09:55:30;;;;;;;;;47.25;36.25;;;;;13.67;50.16;102020.56;5020694;28;46937;-59
2023/04/17 09:57:57;;;;;;;;;41.50;36.00;;;;;13.65;50.25;102016.16;5019754;28;45383;-59
2023/04/17 10:00:26;;;;;;;;;39.25;33.00;;;;;13.70;50.27;102020.53;5028176;28;45333;-60
2023/04/17 10:02:52;;;;;;;;;46.00;35.00;;;;;13.68;49.92;102019.69;5028165;28;45462;-59
2023/04/17 10:05:22;;;;;;;;;46.75;36.50;;;;;13.71;50.13;102017.91;5027336;28;46131;-59
2023/04/17 10:07:47;;;;;;;;;44.75;34.50;;;;;13.73;50.08;102012.59;5026953;28;45272;-60
2023/04/17 10:10:33;;;;;;;;;45.00;36.50;;;;;13.73;50.09;102028.44;5021405;28;45422;-59
2023/04/17 10:13:04;;;;;;;;;42.75;35.50;;;;;13.75;49.54;102021.41;5024247;28;45396;-59
2023/04/17 10:15:31;;;;;;;;;41.50;34.00;;;;;13.76;49.91;102012.56;5030236;28;46190;-60
2023/04/17 10:18:22;;;;;;;;;46.75;37.75;;;;;13.79;49.95;102017.84;5020757;28;45352;-60
2023/04/17 10:20:50;;;;;;;;;37.75;32.75;;;;;13.79;49.86;102013.41;5020621;28;45238;-60
2023/04/17 10:23:32;;;;;;;;;43.00;35.00;;;;;13.82;50.10;102017.81;5036473;28;45617;-60
2023/04/17 10:26:26;;;;;;;;;45.25;36.75;;;;;13.84;49.74;102016.03;5036932;28;46476;-60
2023/04/17 10:28:53;;;;;;;;;45.75;36.75;;;;;13.81;50.18;102011.66;5040532;28;45306;-60
2023/04/17 10:31:20;;;;;;;;;44.75;36.25;;;;;13.86;50.25;102019.56;5040563;28;45288;-60
2023/04/17 10:33:53;;;;;;;;;47.75;38.75;;;;;13.88;50.28;102008.97;5027440;28;45719;-60
2023/04/17 10:36:36;;;;;;;;;46.75;37.00;;;;;13.88;50.36;102012.47;5027761;28;45340;-60
2023/04/17 10:39:12;;;;;;;;;37.00;32.00;;;;;13.90;49.83;102010.72;5023830;28;45279;-60
2023/04/17 10:42:00;;;;;;;;;43.75;35.75;;;;;13.91;50.16;102006.28;5020583;28;45241;-60
2023/04/17 10:44:26;;;;;;;;;40.00;34.00;;;;;13.89;50.22;101998.38;5028186;28;45303;-60
2023/04/17 10:46:51;;;;;;;;;46.25;36.25;;;;;13.91;49.88;102001.91;5025906;28;46111;-60
2023/04/17 10:49:19;;;;;;;;;43.50;35.75;;;;;13.89;50.18;101997.53;5043294;28;45487;-60
2023/04/17 10:51:45;;;;;;;;;48.25;37.75;;;;;13.96;50.44;102007.13;5038641;28;45267;-60
2023/04/17 10:54:14;;;;;;;;;47.25;38.75;;;;;13.96;49.77;101994.81;5021012;28;45558;-60
2023/04/17 10:56:41;;;;;;;;;44.00;34.75;;;;;13.98;49.80;101992.16;5018939;28;46235;-60
2023/04/17 10:59:11;;;;;;;;;45.75;36.50;;;;;13.98;49.95;101998.28;5035681;28;45419;-60
2023/04/17 11:01:37;;;;;;;;;47.50;36.00;;;;;14.00;49.87;102003.59;5034890;28;45174;-60
2023/04/17 11:04:03;;;;;;;;;48.75;37.50;;;;;13.91;49.66;101991.34;5020735;28;45197;-60
2023/04/17 11:06:36;;;;;;;;;42.50;36.25;;;;;14.02;50.23;101993.88;5019720;28;46147;-60
2023/04/17 11:09:05;;;;;;;;;47.00;36.25;;;;;14.05;50.38;101998.25;5019705;28;45323;-60
2023/04/17 11:11:39;;;;;;;;;45.50;36.75;;;;;14.03;49.93;101989.47;5020067;28;45374;-60
2023/04/17 11:14:09;;;;;;;;;43.50;36.25;;;;;14.06;50.14;101992.97;5020706;28;45347;-60